createdAt,value
2022-07-30T00:00:19.716Z,24.90
2022-07-30T00:02:52.291Z,45.90
2022-07-30T00:05:19.041Z,47.30
2022-07-30T00:07:45.817Z,43.70
2022-07-30T00:10:12.569Z,42.70
2022-07-30T00:12:39.657Z,49.40
2022-07-30T00:15:07.046Z,37.90
2022-07-30T00:17:33.842Z,49.70
2022-07-30T00:20:01.531Z,49.30
2022-07-30T00:22:30.986Z,57.30
2022-07-30T00:24:57.798Z,53.60
2022-07-30T00:27:24.583Z,48.30
2022-07-30T00:29:51.380Z,46.70
2022-07-30T00:32:18.134Z,62.20
2022-07-30T00:34:44.855Z,60.60
2022-07-30T00:37:11.641Z,49.20
2022-07-30T00:39:38.413Z,75.50
2022-07-30T00:42:05.248Z,84.30
2022-07-30T00:44:32.089Z,99.90
2022-07-30T00:46:59.438Z,99.90
2022-07-30T00:49:26.919Z,99.90
2022-07-30T00:51:54.030Z,99.90
2022-07-30T00:54:21.407Z,99.90
2022-07-30T00:56:49.046Z,99.90
2022-07-30T00:59:16.556Z,99.90
2022-07-30T01:01:43.355Z,99.90
2022-07-30T01:04:11.861Z,99.90
2022-07-30T01:06:40.287Z,99.90
2022-07-30T01:09:07.809Z,99.90
2022-07-30T01:11:41.135Z,99.90
2022-07-30T01:14:09.522Z,99.90
2022-07-30T01:16:40.214Z,99.90
2022-07-30T01:19:32.153Z,99.90
2022-07-30T01:22:11.812Z,99.90
2022-07-30T01:24:46.928Z,99.90
2022-07-30T01:27:19.499Z,99.90
2022-07-30T01:29:47.554Z,99.90
2022-07-30T01:32:16.432Z,99.90
2022-07-30T01:34:44.979Z,99.90
2022-07-30T01:37:12.388Z,99.90
2022-07-30T01:39:40.006Z,99.90
2022-07-30T01:42:09.181Z,99.90
2022-07-30T01:44:37.669Z,99.90
2022-07-30T01:47:05.777Z,99.90
2022-07-30T01:49:35.302Z,99.90
2022-07-30T01:52:03.367Z,99.90
2022-07-30T01:54:33.635Z,99.90
2022-07-30T01:57:01.918Z,99.90
2022-07-30T01:59:31.727Z,99.90
2022-07-30T02:01:59.444Z,99.90
2022-07-30T02:04:27.441Z,99.90
2022-07-30T02:07:04.295Z,99.90
2022-07-30T02:09:47.260Z,99.90
2022-07-30T02:12:28.642Z,99.90
2022-07-30T02:15:13.928Z,99.90
2022-07-30T02:17:56.899Z,99.90
2022-07-30T02:20:28.185Z,99.90
2022-07-30T02:23:00.213Z,99.90
2022-07-30T02:25:28.999Z,99.90
2022-07-30T02:28:02.037Z,99.90
2022-07-30T02:30:32.750Z,99.90
2022-07-30T02:33:08.381Z,99.90
2022-07-30T02:35:37.054Z,99.90
2022-07-30T02:38:05.601Z,99.90
2022-07-30T02:40:32.920Z,99.90
2022-07-30T02:43:01.264Z,99.90
2022-07-30T02:45:30.390Z,99.90
2022-07-30T02:48:06.647Z,99.90
2022-07-30T02:50:34.232Z,99.90
2022-07-30T02:53:02.889Z,99.90
2022-07-30T02:55:33.181Z,1.00
2022-07-30T02:58:01.293Z,1.00
2022-07-30T03:00:30.895Z,1.00
2022-07-30T03:02:58.982Z,1.00
2022-07-30T03:05:29.171Z,1.00
2022-07-30T03:07:58.622Z,1.00
2022-07-30T03:10:27.166Z,1.00
2022-07-30T03:12:54.990Z,1.00
2022-07-30T03:15:22.250Z,1.00
2022-07-30T03:17:52.794Z,1.00
2022-07-30T03:20:25.927Z,99.90
2022-07-30T03:22:55.027Z,99.90
2022-07-30T03:25:26.076Z,1.00
2022-07-30T03:27:54.902Z,99.90
2022-07-30T03:30:23.781Z,99.90
2022-07-30T03:32:51.480Z,1.00
2022-07-30T03:35:20.425Z,1.00
2022-07-30T03:37:48.898Z,1.00
2022-07-30T03:40:16.234Z,1.00
2022-07-30T03:42:45.483Z,1.00
2022-07-30T03:45:13.886Z,1.00
2022-07-30T03:47:42.719Z,1.00
2022-07-30T03:50:10.460Z,1.00
2022-07-30T03:52:42.979Z,1.00
2022-07-30T03:55:12.238Z,1.00
2022-07-30T03:57:39.583Z,1.00
2022-07-30T04:00:12.626Z,1.00
2022-07-30T04:02:43.812Z,1.00
2022-07-30T04:05:12.747Z,1.00
2022-07-30T04:07:41.347Z,1.00
2022-07-30T04:10:12.776Z,1.00
2022-07-30T04:12:39.696Z,5.30
2022-07-30T04:16:36.966Z,51.60
2022-07-30T04:17:58.715Z,16.30
2022-07-30T04:20:31.599Z,65.50
2022-07-30T04:22:59.253Z,90.50
2022-07-30T04:25:26.451Z,99.90
2022-07-30T04:28:02.827Z,99.90
2022-07-30T04:30:31.350Z,99.90
2022-07-30T04:32:58.080Z,99.90
2022-07-30T04:35:50.630Z,99.90
2022-07-30T04:38:19.892Z,99.90
2022-07-30T04:40:47.138Z,99.90
2022-07-30T04:43:14.378Z,99.90
2022-07-30T04:45:41.880Z,99.90
2022-07-30T04:48:08.813Z,99.90
2022-07-30T04:50:40.798Z,99.90
2022-07-30T04:53:08.335Z,99.90
2022-07-30T04:55:36.181Z,99.90
2022-07-30T04:58:03.405Z,99.90
2022-07-30T05:00:32.612Z,99.90
2022-07-30T05:03:01.627Z,99.90
2022-07-30T05:05:32.470Z,99.90
2022-07-30T05:08:01.228Z,1.00
2022-07-30T05:10:28.153Z,1.00
2022-07-30T05:12:55.272Z,1.00
2022-07-30T05:15:22.042Z,1.00
2022-07-30T05:17:56.053Z,1.00
2022-07-30T05:20:22.807Z,91.90
2022-07-30T05:22:50.769Z,99.90
2022-07-30T05:25:17.944Z,99.90
2022-07-30T05:27:44.733Z,99.90
2022-07-30T05:30:13.037Z,1.00
2022-07-30T05:32:39.919Z,1.00
2022-07-30T05:35:06.926Z,1.00
2022-07-30T05:37:34.639Z,1.00
2022-07-30T05:40:02.794Z,99.90
2022-07-30T05:42:29.930Z,99.90
2022-07-30T05:44:56.950Z,99.90
2022-07-30T05:47:23.871Z,99.90
2022-07-30T05:49:50.622Z,99.90
2022-07-30T05:52:17.353Z,1.00
2022-07-30T05:54:44.309Z,1.00
2022-07-30T05:57:11.141Z,20.20
2022-07-30T05:59:38.111Z,99.90
2022-07-30T06:02:06.686Z,99.90
2022-07-30T06:04:35.489Z,99.90
2022-07-30T06:07:02.742Z,99.90
2022-07-30T06:09:36.411Z,1.00
2022-07-30T06:12:04.779Z,1.00
2022-07-30T06:14:32.268Z,1.00
2022-07-30T06:16:59.405Z,1.00
2022-07-30T06:19:26.534Z,35.00
2022-07-30T06:22:05.931Z,99.90
2022-07-30T06:24:34.214Z,99.90
2022-07-30T06:27:01.276Z,82.20
2022-07-30T06:29:28.368Z,99.90
2022-07-30T06:31:55.452Z,99.90
2022-07-30T06:34:22.419Z,1.00
2022-07-30T06:36:49.697Z,1.00
2022-07-30T06:39:56.710Z,99.90
2022-07-30T06:42:03.729Z,99.90
2022-07-30T06:44:30.551Z,99.90
2022-07-30T06:46:57.260Z,99.90
2022-07-30T06:49:24.124Z,99.90
2022-07-30T06:51:51.375Z,99.90
2022-07-30T06:54:18.330Z,4.30
2022-07-30T06:56:45.087Z,99.90
2022-07-30T06:59:11.807Z,99.90
2022-07-30T07:01:38.587Z,1.00
2022-07-30T07:04:05.429Z,1.00
2022-07-30T07:06:32.831Z,99.90
2022-07-30T07:09:00.378Z,1.00
2022-07-30T07:11:27.157Z,1.00
2022-07-30T07:13:53.894Z,1.00
2022-07-30T07:16:24.842Z,1.00
2022-07-30T07:18:55.864Z,99.90
2022-07-30T07:21:23.489Z,99.90
2022-07-30T07:23:50.446Z,99.90
2022-07-30T07:26:17.263Z,1.00
2022-07-30T07:28:44.142Z,1.00
2022-07-30T07:31:11.297Z,1.00
2022-07-30T07:33:57.908Z,99.90
2022-07-30T07:36:24.671Z,99.90
2022-07-30T07:38:51.410Z,99.90
2022-07-30T07:41:18.508Z,99.90
2022-07-30T07:43:45.230Z,55.10
2022-07-30T07:46:16.322Z,1.00
2022-07-30T07:48:44.654Z,1.00
2022-07-30T07:51:11.762Z,1.00
2022-07-30T07:53:38.520Z,1.00
2022-07-30T07:56:08.363Z,1.00
2022-07-30T07:58:35.343Z,1.00
2022-07-30T08:01:05.048Z,1.00
2022-07-30T08:03:31.950Z,1.00
2022-07-30T08:06:05.605Z,99.90
2022-07-30T08:08:33.346Z,99.90
2022-07-30T08:11:00.105Z,99.90
2022-07-30T08:13:51.378Z,99.90
2022-07-30T08:16:14.590Z,99.90
2022-07-30T08:18:41.545Z,99.90
2022-07-30T08:21:08.620Z,99.90
2022-07-30T08:23:37.819Z,99.90
2022-07-30T08:26:07.802Z,99.90
2022-07-30T08:28:36.878Z,57.50
2022-07-30T08:31:04.078Z,99.90
2022-07-30T08:33:30.972Z,49.80
2022-07-30T08:36:02.845Z,31.30
2022-07-30T08:38:31.271Z,60.60
2022-07-30T08:40:58.848Z,68.10
2022-07-30T08:43:28.590Z,99.90
2022-07-30T08:45:57.207Z,96.50
2022-07-30T08:48:24.950Z,99.90
2022-07-30T08:50:52.867Z,99.90
2022-07-30T08:53:20.278Z,92.90
2022-07-30T08:55:47.207Z,99.90
2022-07-30T08:58:47.506Z,50.20
2022-07-30T09:01:14.327Z,20.00
2022-07-30T09:03:44.357Z,23.80
2022-07-30T09:06:11.894Z,19.50
2022-07-30T09:08:38.944Z,1.00
2022-07-30T09:11:05.748Z,1.00
2022-07-30T09:13:35.239Z,1.00
2022-07-30T09:16:02.924Z,1.00
2022-07-30T09:18:38.171Z,1.00
2022-07-30T09:21:15.593Z,1.00
2022-07-30T09:23:55.793Z,1.00
2022-07-30T09:26:22.522Z,1.00
2022-07-30T09:28:49.355Z,1.00
2022-07-30T09:31:18.190Z,1.00
2022-07-30T09:33:47.427Z,1.00
2022-07-30T09:36:18.598Z,1.00
2022-07-30T09:38:54.455Z,1.00
2022-07-30T09:41:39.184Z,1.00
2022-07-30T09:44:06.906Z,1.00
2022-07-30T09:46:47.536Z,1.00
2022-07-30T09:49:19.775Z,1.00
2022-07-30T09:51:56.279Z,1.00
2022-07-30T09:54:25.952Z,1.00
2022-07-30T09:57:25.536Z,1.00
2022-07-30T09:59:55.696Z,1.00
2022-07-30T10:02:33.464Z,1.00
2022-07-30T10:05:15.266Z,1.00
2022-07-30T10:07:51.083Z,1.00
2022-07-30T10:10:25.538Z,1.00
2022-07-30T10:12:56.930Z,1.00
2022-07-30T10:15:27.628Z,1.00
2022-07-30T10:17:54.596Z,1.00
2022-07-30T10:20:22.673Z,1.00
2022-07-30T10:22:50.383Z,1.00
2022-07-30T10:25:19.496Z,1.00
2022-07-30T10:27:48.902Z,1.00
2022-07-30T10:30:16.608Z,1.00
2022-07-30T10:32:46.752Z,1.00
2022-07-30T10:35:34.234Z,1.00
2022-07-30T10:38:09.363Z,1.00
2022-07-30T10:40:57.110Z,1.00
2022-07-30T10:43:49.562Z,1.00
2022-07-30T10:46:29.265Z,1.00
2022-07-30T10:49:07.450Z,1.00
2022-07-30T10:51:49.567Z,1.00
2022-07-30T10:54:39.214Z,1.00
2022-07-30T10:57:15.234Z,1.00
2022-07-30T10:59:50.226Z,1.00
2022-07-30T11:02:19.643Z,1.00
2022-07-30T11:04:47.107Z,1.00
2022-07-30T11:07:27.817Z,1.00
2022-07-30T11:10:08.666Z,1.00
2022-07-30T11:12:44.073Z,1.00
2022-07-30T11:15:19.107Z,1.00
2022-07-30T11:18:12.174Z,1.00
2022-07-30T11:20:39.941Z,1.00
2022-07-30T11:23:29.623Z,1.00
2022-07-30T11:26:02.492Z,1.00
2022-07-30T11:28:45.527Z,1.00
2022-07-30T11:31:56.455Z,1.00
2022-07-30T11:34:26.657Z,1.00
2022-07-30T11:37:18.780Z,1.00
2022-07-30T11:39:55.443Z,1.00
2022-07-30T11:42:33.236Z,1.00
2022-07-30T11:45:18.573Z,1.00
2022-07-30T11:47:50.803Z,1.00
2022-07-30T11:50:25.845Z,1.00
2022-07-30T11:52:54.557Z,1.00
2022-07-30T11:55:36.295Z,1.00
2022-07-30T11:58:06.691Z,1.00
2022-07-30T12:00:39.929Z,1.00
2022-07-30T12:03:20.195Z,1.00
2022-07-30T12:05:51.154Z,1.00
2022-07-30T12:08:35.429Z,1.00
2022-07-30T12:11:03.042Z,1.00
2022-07-30T12:13:45.760Z,1.00
2022-07-30T12:16:17.279Z,1.00
2022-07-30T12:18:45.453Z,1.00
2022-07-30T12:21:13.618Z,1.00
2022-07-30T12:23:43.290Z,1.00
2022-07-30T12:26:30.649Z,1.00
2022-07-30T12:28:59.448Z,1.00
2022-07-30T12:31:27.520Z,1.00
2022-07-30T12:33:56.312Z,1.00
2022-07-30T12:36:31.481Z,1.00
2022-07-30T12:38:58.833Z,1.00
2022-07-30T12:41:46.134Z,1.00
2022-07-30T12:44:41.958Z,1.00
2022-07-30T12:47:29.038Z,1.00
2022-07-30T12:50:01.611Z,1.00
2022-07-30T12:52:31.589Z,1.00
2022-07-30T12:54:59.377Z,1.00
2022-07-30T12:57:26.138Z,1.00
2022-07-30T13:00:08.100Z,1.00
2022-07-30T13:02:35.193Z,1.00
2022-07-30T13:05:11.737Z,1.00
2022-07-30T13:07:59.195Z,1.00
2022-07-30T13:10:31.103Z,1.00
2022-07-30T13:12:58.946Z,1.00
2022-07-30T13:15:26.448Z,1.00
2022-07-30T13:17:53.252Z,1.00
2022-07-30T13:20:20.930Z,1.00
2022-07-30T13:22:47.699Z,1.00
2022-07-30T13:25:14.556Z,1.00
2022-07-30T13:27:41.319Z,1.00
2022-07-30T13:30:08.844Z,1.00
2022-07-30T13:32:35.696Z,1.00
2022-07-30T13:35:03.095Z,1.00
2022-07-30T13:37:38.333Z,1.00
2022-07-30T13:40:06.336Z,1.00
2022-07-30T13:42:33.399Z,1.00
2022-07-30T13:45:00.291Z,1.00
2022-07-30T13:47:27.066Z,1.00
2022-07-30T13:49:54.033Z,1.00
2022-07-30T13:52:20.765Z,1.00
2022-07-30T13:54:48.207Z,1.00
2022-07-30T13:57:15.029Z,1.00
2022-07-30T13:59:41.851Z,1.00
2022-07-30T14:02:08.836Z,1.00
2022-07-30T14:04:35.665Z,1.00
2022-07-30T14:07:02.694Z,1.00
2022-07-30T14:09:29.625Z,1.00
2022-07-30T14:11:56.725Z,1.00
2022-07-30T14:14:23.510Z,1.00
2022-07-30T14:16:53.816Z,1.00
2022-07-30T14:19:22.979Z,1.00
2022-07-30T14:21:52.999Z,1.00
2022-07-30T14:24:20.841Z,1.00
2022-07-30T14:26:48.056Z,1.00
2022-07-30T14:29:14.846Z,1.00
2022-07-30T14:31:41.565Z,1.00
2022-07-30T14:34:08.556Z,1.00
2022-07-30T14:36:37.253Z,1.00
2022-07-30T14:39:04.884Z,1.00
2022-07-30T14:41:32.205Z,1.00
2022-07-30T14:43:58.998Z,1.00
2022-07-30T14:46:25.733Z,1.00
2022-07-30T14:48:52.517Z,1.00
2022-07-30T14:51:24.371Z,1.00
2022-07-30T14:53:52.749Z,1.00
2022-07-30T14:56:19.635Z,1.00
2022-07-30T14:58:46.463Z,1.00
2022-07-30T15:01:16.714Z,1.00
2022-07-30T15:03:45.294Z,1.00
2022-07-30T15:06:13.041Z,1.00
2022-07-30T15:08:39.961Z,1.00
2022-07-30T15:11:07.882Z,1.00
2022-07-30T15:13:35.741Z,1.00
2022-07-30T15:16:03.377Z,1.00
2022-07-30T15:18:30.099Z,1.00
2022-07-30T15:20:56.857Z,1.00
2022-07-30T15:23:23.806Z,1.00
2022-07-30T15:25:50.530Z,1.00
2022-07-30T15:28:17.380Z,1.00
2022-07-30T15:30:44.209Z,1.00
2022-07-30T15:33:11.132Z,1.00
2022-07-30T15:35:37.974Z,1.00
2022-07-30T15:38:04.842Z,1.00
2022-07-30T15:40:31.702Z,1.00
2022-07-30T15:42:58.857Z,1.00
2022-07-30T15:45:25.614Z,1.00
2022-07-30T15:47:52.354Z,1.00
2022-07-30T15:50:19.099Z,1.00
2022-07-30T15:52:45.963Z,1.00
2022-07-30T15:55:12.960Z,1.00
2022-07-30T15:57:41.059Z,1.00
2022-07-30T16:00:09.238Z,1.00
2022-07-30T16:02:36.896Z,1.00
2022-07-30T16:05:04.518Z,1.00
2022-07-30T16:07:31.614Z,1.00
2022-07-30T16:09:58.387Z,1.00
2022-07-30T16:12:25.330Z,1.00
2022-07-30T16:14:52.520Z,1.00
2022-07-30T16:17:19.239Z,1.00
2022-07-30T16:19:46.077Z,1.00
2022-07-30T16:22:14.963Z,1.00
2022-07-30T16:24:48.861Z,1.00
2022-07-30T16:27:17.192Z,1.00
2022-07-30T16:29:43.984Z,1.00
2022-07-30T16:32:11.126Z,1.00
2022-07-30T16:34:37.872Z,1.00
2022-07-30T16:37:04.638Z,1.00
2022-07-30T16:39:31.795Z,1.00
2022-07-30T16:41:58.666Z,1.00
2022-07-30T16:44:27.175Z,1.00
2022-07-30T16:46:54.146Z,1.00
2022-07-30T16:49:20.971Z,1.00
2022-07-30T16:51:47.777Z,1.00
2022-07-30T16:54:14.554Z,1.00
2022-07-30T16:56:41.536Z,1.00
2022-07-30T16:59:13.260Z,1.00
2022-07-30T17:01:40.879Z,1.00
2022-07-30T17:04:07.607Z,1.00
2022-07-30T17:06:35.579Z,1.00
2022-07-30T17:09:02.400Z,1.00
2022-07-30T17:11:47.573Z,1.00
2022-07-30T17:14:16.687Z,1.00
2022-07-30T17:16:43.757Z,1.00
2022-07-30T17:19:10.534Z,1.00
2022-07-30T17:21:38.185Z,1.00
2022-07-30T17:24:11.016Z,1.00
2022-07-30T17:26:40.404Z,1.00
2022-07-30T17:29:10.799Z,1.00
2022-07-30T17:31:43.245Z,1.00
2022-07-30T17:34:10.962Z,1.00
2022-07-30T17:36:38.630Z,1.00
2022-07-30T17:39:05.952Z,1.00
2022-07-30T17:41:32.927Z,1.00
2022-07-30T17:43:59.683Z,1.00
2022-07-30T17:46:27.075Z,1.00
2022-07-30T17:48:54.089Z,1.00
2022-07-30T17:51:20.933Z,1.00
2022-07-30T17:53:47.670Z,1.00
2022-07-30T17:56:27.094Z,1.00
2022-07-30T17:58:54.271Z,1.00
2022-07-30T18:01:21.049Z,1.00
2022-07-30T18:03:48.355Z,1.00
2022-07-30T18:06:15.281Z,1.00
2022-07-30T18:08:42.013Z,1.00
2022-07-30T18:11:13.520Z,1.00
2022-07-30T18:13:40.682Z,1.00
2022-07-30T18:16:07.648Z,1.00
2022-07-30T18:18:34.559Z,1.00
2022-07-30T18:21:01.293Z,1.00
2022-07-30T18:23:34.623Z,1.00
2022-07-30T18:26:01.921Z,1.00
2022-07-30T18:28:29.327Z,1.00
2022-07-30T18:30:56.121Z,1.00
2022-07-30T18:33:22.879Z,1.00
2022-07-30T18:35:49.696Z,1.00
2022-07-30T18:38:16.740Z,1.00
2022-07-30T18:40:44.042Z,1.00
2022-07-30T18:43:10.994Z,1.00
2022-07-30T18:45:37.719Z,1.00
2022-07-30T18:48:04.920Z,1.00
2022-07-30T18:50:32.859Z,1.00
2022-07-30T18:52:59.590Z,1.00
2022-07-30T18:55:26.687Z,1.00
2022-07-30T18:57:53.609Z,1.00
2022-07-30T19:00:34.868Z,1.00
2022-07-30T19:03:02.798Z,1.00
2022-07-30T19:05:29.823Z,1.00
2022-07-30T19:07:58.317Z,1.00
2022-07-30T19:10:26.360Z,1.00
2022-07-30T19:12:53.945Z,1.00
2022-07-30T19:15:21.502Z,1.00
2022-07-30T19:17:51.738Z,1.00
2022-07-30T19:20:19.496Z,1.00
2022-07-30T19:22:46.873Z,1.00
2022-07-30T19:25:13.839Z,1.00
2022-07-30T19:27:40.775Z,1.00
2022-07-30T19:30:08.050Z,1.00
2022-07-30T19:32:35.173Z,1.00
2022-07-30T19:35:01.894Z,1.00
2022-07-30T19:37:28.683Z,1.00
2022-07-30T19:40:05.368Z,1.00
2022-07-30T19:42:34.033Z,1.00
2022-07-30T19:45:04.320Z,1.00
2022-07-30T19:47:39.672Z,1.00
2022-07-30T19:50:10.679Z,1.00
2022-07-30T19:52:38.708Z,1.00
2022-07-30T19:55:30.529Z,1.00
2022-07-30T19:57:54.177Z,1.00
2022-07-30T20:00:25.172Z,1.00
2022-07-30T20:02:52.955Z,1.00
2022-07-30T20:05:19.948Z,1.00
2022-07-30T20:07:49.091Z,1.00
2022-07-30T20:10:16.064Z,1.00
2022-07-30T20:12:48.889Z,1.00
2022-07-30T20:15:17.654Z,1.00
2022-07-30T20:17:46.338Z,1.00
2022-07-30T20:20:13.722Z,1.00
2022-07-30T20:22:40.655Z,1.00
2022-07-30T20:25:08.915Z,1.00
2022-07-30T20:27:38.712Z,1.00
2022-07-30T20:30:07.850Z,1.00
2022-07-30T20:32:36.153Z,1.00
2022-07-30T20:35:03.801Z,1.00
2022-07-30T20:37:30.511Z,1.00
2022-07-30T20:39:57.439Z,1.00
2022-07-30T20:42:24.541Z,1.00
2022-07-30T20:44:53.459Z,1.00
2022-07-30T20:47:37.604Z,1.00
2022-07-30T20:50:10.200Z,1.00
2022-07-30T20:52:40.509Z,1.00
2022-07-30T20:55:09.511Z,1.00
2022-07-30T20:57:56.358Z,1.00
2022-07-30T21:00:23.320Z,1.00
2022-07-30T21:02:51.698Z,1.00
2022-07-30T21:05:19.965Z,1.00
2022-07-30T21:07:47.268Z,1.00
2022-07-30T21:10:14.608Z,1.00
2022-07-30T21:12:44.763Z,1.00
2022-07-30T21:15:23.731Z,1.00
2022-07-30T21:17:51.203Z,1.00
2022-07-30T21:20:28.118Z,1.00
2022-07-30T21:22:56.219Z,1.00
2022-07-30T21:25:23.437Z,1.00
2022-07-30T21:28:00.358Z,1.00
2022-07-30T21:30:30.310Z,1.00
2022-07-30T21:32:57.012Z,1.00
2022-07-30T21:35:24.363Z,1.00
2022-07-30T21:37:58.390Z,1.00
2022-07-30T21:40:25.323Z,1.00
2022-07-30T21:42:52.033Z,1.00
2022-07-30T21:45:19.764Z,1.00
2022-07-30T21:47:48.017Z,1.00
2022-07-30T21:50:16.102Z,1.00
2022-07-30T21:52:43.939Z,1.00
2022-07-30T21:55:13.364Z,1.00
2022-07-30T21:57:40.673Z,1.00
2022-07-30T22:00:15.382Z,1.00
2022-07-30T22:02:53.347Z,1.00
2022-07-30T22:05:22.070Z,1.00
2022-07-30T22:07:50.496Z,1.00
2022-07-30T22:10:21.237Z,1.00
2022-07-30T22:12:48.583Z,1.00
2022-07-30T22:15:15.505Z,1.00
2022-07-30T22:17:58.610Z,1.00
2022-07-30T22:20:29.211Z,1.00
2022-07-30T22:22:57.221Z,1.00
2022-07-30T22:25:24.273Z,1.00
2022-07-30T22:28:08.671Z,1.00
2022-07-30T22:30:35.504Z,1.00
2022-07-30T22:33:11.059Z,1.00
2022-07-30T22:35:39.997Z,1.00
2022-07-30T22:38:13.503Z,1.00
2022-07-30T22:40:40.385Z,1.00
2022-07-30T22:43:13.232Z,1.00
2022-07-30T22:45:49.213Z,1.00
2022-07-30T22:48:17.518Z,1.00
2022-07-30T22:50:46.577Z,1.00
2022-07-30T22:53:56.830Z,1.00
2022-07-30T22:56:02.246Z,1.00
2022-07-30T22:58:30.478Z,1.00
2022-07-30T23:00:57.295Z,1.00
2022-07-30T23:03:24.046Z,1.00
2022-07-30T23:05:56.323Z,1.00
2022-07-30T23:08:30.030Z,1.00
2022-07-30T23:10:59.707Z,1.00
2022-07-30T23:13:27.337Z,1.00
2022-07-30T23:15:54.099Z,1.00
2022-07-30T23:18:20.842Z,1.00
2022-07-30T23:20:47.651Z,1.00
2022-07-30T23:23:15.047Z,1.00
2022-07-30T23:25:41.827Z,1.00
2022-07-30T23:28:08.534Z,1.00
2022-07-30T23:30:35.259Z,1.00
2022-07-30T23:33:02.064Z,1.00
2022-07-30T23:35:28.776Z,1.00
2022-07-30T23:37:55.612Z,1.00
2022-07-30T23:40:22.479Z,1.00
2022-07-30T23:42:50.880Z,1.00
2022-07-30T23:45:18.262Z,1.00
2022-07-30T23:47:57.262Z,1.00
2022-07-30T23:50:31.554Z,1.00
2022-07-30T23:52:58.509Z,1.00
2022-07-30T23:55:25.597Z,1.00
2022-07-30T23:57:53.225Z,1.00
